Time;durP1;ratioP1;P1;durP2;ratioP2;P2;SDS_P1;SDS_P2;PMS_P1;PMS_P2;Temp;Humidity;BMP_temperature;BMP_pressure;BME280_temperature;BME280_humidity;BME280_pressure;Samples;Min_cycle;Max_cycle;Signal;HPM_P1;HPM_P2
2022/08/29 00:00:04;;;;;;;8.82;2.85;;;;;;;;;;5018343;28;20268;-67
2022/08/29 00:02:30;;;;;;;11.20;2.95;;;;;;;;;;5023658;28;20178;-67
2022/08/29 00:04:55;;;;;;;8.23;2.75;;;;;;;;;;5016954;28;20229;-67
2022/08/29 00:07:21;;;;;;;6.63;2.63;;;;;;;;;;5028238;28;20243;-67
2022/08/29 00:09:46;;;;;;;5.78;2.33;;;;;;;;;;5022081;28;20186;-66
2022/08/29 00:12:11;;;;;;;10.43;2.95;;;;;;;;;;5027883;28;20645;-67
2022/08/29 00:14:36;;;;;;;8.30;2.75;;;;;;;;;;5017684;28;20190;-67
2022/08/29 00:17:02;;;;;;;6.05;2.58;;;;;;;;;;5027198;28;20185;-67
2022/08/29 00:19:28;;;;;;;7.88;3.13;;;;;;;;;;5017647;28;20190;-67
2022/08/29 00:21:53;;;;;;;5.78;2.60;;;;;;;;;;5027965;28;20190;-67
2022/08/29 00:24:19;;;;;;;7.03;2.50;;;;;;;;;;5026466;28;20265;-67
2022/08/29 00:26:44;;;;;;;7.55;2.97;;;;;;;;;;5026952;28;20213;-68
2022/08/29 00:29:10;;;;;;;6.93;2.65;;;;;;;;;;5027289;28;20182;-67
2022/08/29 00:31:35;;;;;;;8.07;3.30;;;;;;;;;;5027513;28;20245;-67
2022/08/29 00:34:01;;;;;;;5.28;3.03;;;;;;;;;;5021592;28;20304;-67
2022/08/29 00:36:26;;;;;;;4.85;2.58;;;;;;;;;;5027104;28;20268;-67
2022/08/29 00:38:52;;;;;;;9.50;2.92;;;;;;;;;;5025644;28;20293;-67
2022/08/29 00:41:18;;;;;;;10.65;3.47;;;;;;;;;;5020319;28;20482;-67
2022/08/29 00:43:44;;;;;;;4.65;2.80;;;;;;;;;;5027921;28;20186;-67
2022/08/29 00:46:34;;;;;;;7.38;3.00;;;;;;;;;;5026500;28;20212;-67
2022/08/29 00:49:07;;;;;;;6.97;2.70;;;;;;;;;;5024554;28;20679;-67
2022/08/29 00:51:32;;;;;;;7.63;2.90;;;;;;;;;;5025291;28;20206;-67
2022/08/29 00:54:03;;;;;;;6.32;2.70;;;;;;;;;;5021926;28;20669;-67
2022/08/29 00:56:29;;;;;;;5.90;2.85;;;;;;;;;;5023741;28;20174;-67
2022/08/29 00:58:59;;;;;;;6.03;2.50;;;;;;;;;;5013939;28;20368;-67
2022/08/29 01:01:25;;;;;;;7.70;2.72;;;;;;;;;;5027589;28;20621;-67
2022/08/29 01:03:52;;;;;;;9.35;2.55;;;;;;;;;;5024643;28;20190;-67
2022/08/29 01:06:18;;;;;;;7.93;3.13;;;;;;;;;;5014337;28;20194;-67
2022/08/29 01:08:44;;;;;;;4.75;2.60;;;;;;;;;;5022942;28;20638;-67
2022/08/29 01:13:58;;;;;;;5.30;2.80;;;;;;;;;;5014560;28;20679;-67
2022/08/29 01:16:25;;;;;;;6.03;3.45;;;;;;;;;;5027437;28;20174;-67
2022/08/29 01:18:55;;;;;;;8.70;3.03;;;;;;;;;;5027052;28;20186;-67
2022/08/29 01:21:34;;;;;;;9.50;3.55;;;;;;;;;;5025558;28;20206;-67
2022/08/29 01:24:23;;;;;;;7.97;2.75;;;;;;;;;;5022832;28;20229;-67
2022/08/29 01:26:48;;;;;;;5.68;2.55;;;;;;;;;;5026828;28;20351;-67
2022/08/29 01:29:14;;;;;;;9.18;3.47;;;;;;;;;;5025453;28;20697;-67
2022/08/29 01:31:47;;;;;;;6.97;3.20;;;;;;;;;;5023729;28;20289;-67
2022/08/29 01:34:14;;;;;;;7.95;3.25;;;;;;;;;;5021907;28;20335;-67
2022/08/29 01:36:49;;;;;;;6.63;3.03;;;;;;;;;;5021525;28;20644;-67
2022/08/29 01:39:16;;;;;;;8.85;3.08;;;;;;;;;;5025167;28;20189;-67
2022/08/29 01:41:42;;;;;;;9.48;3.10;;;;;;;;;;5026605;28;20189;-67
2022/08/29 01:44:11;;;;;;;8.00;3.20;;;;;;;;;;5021800;28;20538;-67
2022/08/29 01:46:37;;;;;;;6.20;3.20;;;;;;;;;;5023686;28;20257;-67
2022/08/29 01:49:06;;;;;;;7.10;2.75;;;;;;;;;;5022586;28;20217;-67
2022/08/29 01:51:32;;;;;;;9.35;3.30;;;;;;;;;;5024251;28;20179;-67
2022/08/29 01:53:57;;;;;;;5.70;3.17;;;;;;;;;;5022556;28;20178;-67
2022/08/29 01:56:26;;;;;;;7.80;3.35;;;;;;;;;;5024332;28;20179;-67
2022/08/29 01:58:53;;;;;;;10.10;3.20;;;;;;;;;;5023588;28;20197;-67
2022/08/29 02:01:23;;;;;;;8.57;3.08;;;;;;;;;;5023673;28;20193;-67
2022/08/29 02:03:49;;;;;;;10.50;3.22;;;;;;;;;;5025723;28;20186;-67
2022/08/29 02:06:14;;;;;;;7.90;3.03;;;;;;;;;;5025781;28;20275;-67
2022/08/29 02:08:42;;;;;;;8.60;3.20;;;;;;;;;;5022548;28;20249;-67
2022/08/29 02:11:09;;;;;;;10.07;3.53;;;;;;;;;;5024169;28;20474;-66
2022/08/29 02:13:40;;;;;;;7.22;3.00;;;;;;;;;;5023233;28;20187;-67
2022/08/29 02:16:05;;;;;;;9.40;3.28;;;;;;;;;;5019554;28;20183;-67
2022/08/29 02:18:32;;;;;;;8.15;3.65;;;;;;;;;;5024596;28;20194;-67
2022/08/29 02:20:58;;;;;;;9.00;3.30;;;;;;;;;;5026657;28;20209;-67
2022/08/29 02:23:23;;;;;;;9.32;3.10;;;;;;;;;;5026193;28;20654;-67
2022/08/29 02:25:48;;;;;;;9.60;3.58;;;;;;;;;;5024084;28;20229;-67
2022/08/29 02:28:16;;;;;;;9.50;3.30;;;;;;;;;;5025006;28;20186;-67
2022/08/29 02:30:44;;;;;;;8.05;3.70;;;;;;;;;;5016872;28;20580;-67
2022/08/29 02:33:12;;;;;;;9.50;3.08;;;;;;;;;;5021668;28;20220;-67
2022/08/29 02:35:38;;;;;;;4.65;3.35;;;;;;;;;;5016854;28;20170;-67
2022/08/29 02:38:04;;;;;;;5.70;3.03;;;;;;;;;;5023049;28;20182;-67
2022/08/29 02:40:29;;;;;;;5.22;3.40;;;;;;;;;;5024075;28;20227;-67
2022/08/29 02:42:54;;;;;;;8.25;3.17;;;;;;;;;;5022085;28;20255;-67
2022/08/29 02:45:21;;;;;;;8.13;3.30;;;;;;;;;;5024053;28;20575;-67
2022/08/29 02:47:47;;;;;;;6.43;3.30;;;;;;;;;;5017290;28;20674;-67
2022/08/29 02:50:13;;;;;;;7.88;3.63;;;;;;;;;;5023617;28;20182;-67
2022/08/29 02:52:39;;;;;;;7.45;3.30;;;;;;;;;;5028921;28;20574;-68
2022/08/29 02:55:07;;;;;;;9.65;3.13;;;;;;;;;;5027012;28;20182;-67
2022/08/29 02:57:32;;;;;;;5.63;3.22;;;;;;;;;;5029390;28;20194;-67
2022/08/29 02:59:58;;;;;;;10.43;3.30;;;;;;;;;;5026021;28;20269;-68
2022/08/29 03:02:23;;;;;;;5.35;3.28;;;;;;;;;;5022525;28;20193;-67
2022/08/29 03:04:49;;;;;;;10.75;3.05;;;;;;;;;;5020738;28;20206;-67
2022/08/29 03:07:14;;;;;;;5.50;3.20;;;;;;;;;;5028547;28;20205;-67
2022/08/29 03:09:39;;;;;;;6.90;3.05;;;;;;;;;;5022678;28;20178;-67
2022/08/29 03:12:05;;;;;;;6.75;3.17;;;;;;;;;;5029226;28;20542;-67
2022/08/29 03:14:30;;;;;;;6.47;3.15;;;;;;;;;;5022497;28;20273;-67
2022/08/29 03:16:55;;;;;;;9.05;3.45;;;;;;;;;;5023035;28;20187;-67
2022/08/29 03:19:21;;;;;;;9.80;3.30;;;;;;;;;;5019562;28;20556;-67
2022/08/29 03:21:47;;;;;;;9.50;3.30;;;;;;;;;;5028914;28;20240;-67
2022/08/29 03:24:13;;;;;;;6.68;3.08;;;;;;;;;;5022145;28;20384;-67
2022/08/29 03:26:38;;;;;;;6.50;3.22;;;;;;;;;;5026642;28;20577;-67
2022/08/29 03:29:04;;;;;;;5.97;3.30;;;;;;;;;;5028094;28;20229;-67
2022/08/29 03:31:29;;;;;;;5.63;3.40;;;;;;;;;;5027302;28;20697;-67
2022/08/29 03:33:55;;;;;;;7.80;3.45;;;;;;;;;;5027141;28;20201;-67
2022/08/29 03:36:21;;;;;;;6.38;3.20;;;;;;;;;;5024612;28;20209;-67
2022/08/29 03:38:47;;;;;;;9.05;3.25;;;;;;;;;;5028072;28;20285;-67
2022/08/29 03:41:24;;;;;;;5.65;2.95;;;;;;;;;;5029027;28;20269;-67
2022/08/29 03:43:50;;;;;;;8.57;3.40;;;;;;;;;;5022753;28;20185;-67
2022/08/29 03:46:16;;;;;;;4.72;3.08;;;;;;;;;;5029949;28;20202;-67
2022/08/29 03:48:41;;;;;;;10.52;3.10;;;;;;;;;;5029446;28;20548;-67
2022/08/29 03:51:07;;;;;;;7.55;3.85;;;;;;;;;;5022235;28;20622;-67
2022/08/29 03:53:33;;;;;;;6.28;3.08;;;;;;;;;;5027993;28;20189;-67
2022/08/29 03:55:58;;;;;;;8.45;3.50;;;;;;;;;;5020764;28;20258;-67
2022/08/29 03:58:24;;;;;;;8.93;3.60;;;;;;;;;;5026601;28;20178;-68
2022/08/29 04:00:49;;;;;;;6.78;3.10;;;;;;;;;;5024882;28;20183;-67
2022/08/29 04:03:15;;;;;;;8.43;3.25;;;;;;;;;;5023279;28;20258;-67
2022/08/29 04:05:41;;;;;;;5.72;3.00;;;;;;;;;;5027771;28;20673;-67
2022/08/29 04:08:07;;;;;;;6.93;2.90;;;;;;;;;;5027973;28;20193;-67
2022/08/29 04:10:36;;;;;;;5.10;2.55;;;;;;;;;;5027591;28;20683;-67
2022/08/29 04:13:03;;;;;;;4.15;2.92;;;;;;;;;;5026310;28;20221;-67
2022/08/29 04:15:31;;;;;;;6.40;2.40;;;;;;;;;;5024044;28;20224;-67
2022/08/29 04:17:58;;;;;;;4.50;2.40;;;;;;;;;;5024585;28;20238;-67
2022/08/29 04:20:28;;;;;;;5.13;2.78;;;;;;;;;;5019067;28;20331;-67
2022/08/29 04:22:55;;;;;;;6.78;3.05;;;;;;;;;;5028142;28;20189;-67
2022/08/29 04:25:21;;;;;;;6.88;2.97;;;;;;;;;;5027056;28;20240;-67
2022/08/29 04:27:48;;;;;;;5.45;3.03;;;;;;;;;;5024004;28;20252;-68
2022/08/29 04:30:16;;;;;;;5.78;2.83;;;;;;;;;;5027605;28;20186;-67
2022/08/29 04:32:42;;;;;;;6.78;2.95;;;;;;;;;;5027059;28;20210;-67
2022/08/29 04:35:11;;;;;;;5.03;3.00;;;;;;;;;;5022645;28;20397;-67
2022/08/29 04:37:37;;;;;;;5.88;2.80;;;;;;;;;;5023740;28;20458;-67
2022/08/29 04:40:03;;;;;;;8.75;3.13;;;;;;;;;;5025003;28;20649;-67
2022/08/29 04:42:29;;;;;;;6.03;2.85;;;;;;;;;;5020900;28;20208;-67
2022/08/29 04:44:56;;;;;;;5.40;3.30;;;;;;;;;;5022978;28;20210;-68
2022/08/29 04:47:21;;;;;;;7.00;3.38;;;;;;;;;;5022043;28;20236;-67
2022/08/29 04:49:48;;;;;;;9.48;3.80;;;;;;;;;;5022798;28;20190;-67
2022/08/29 04:52:14;;;;;;;11.90;7.00;;;;;;;;;;5024651;28;20190;-68
2022/08/29 04:54:39;;;;;;;7.82;3.80;;;;;;;;;;5020259;28;20183;-67
2022/08/29 04:57:05;;;;;;;5.22;3.30;;;;;;;;;;5022037;28;20665;-68
2022/08/29 04:59:30;;;;;;;7.28;3.10;;;;;;;;;;5024184;28;20183;-67
2022/08/29 05:01:56;;;;;;;6.63;3.58;;;;;;;;;;5025773;28;20629;-67
2022/08/29 05:04:21;;;;;;;8.68;3.70;;;;;;;;;;5022090;28;20182;-67
2022/08/29 05:06:46;;;;;;;6.35;3.38;;;;;;;;;;5024774;28;20230;-67
2022/08/29 05:09:12;;;;;;;3.72;2.97;;;;;;;;;;5025566;28;20186;-67
2022/08/29 05:11:39;;;;;;;7.38;3.65;;;;;;;;;;5024288;28;20653;-67
2022/08/29 05:14:04;;;;;;;7.88;3.63;;;;;;;;;;5024679;28;20202;-67
2022/08/29 05:16:30;;;;;;;8.38;3.65;;;;;;;;;;5024445;28;20216;-68
2022/08/29 05:18:58;;;;;;;9.05;3.80;;;;;;;;;;5018414;28;20190;-67
2022/08/29 05:21:30;;;;;;;8.48;4.03;;;;;;;;;;5024245;28;20182;-67
2022/08/29 05:23:57;;;;;;;5.90;3.72;;;;;;;;;;5023870;28;20559;-67
2022/08/29 05:26:24;;;;;;;7.05;3.45;;;;;;;;;;5017147;28;20722;-68
2022/08/29 05:28:49;;;;;;;4.72;3.30;;;;;;;;;;5026105;28;20190;-68
2022/08/29 05:31:16;;;;;;;6.90;3.83;;;;;;;;;;5021087;28;20216;-67
2022/08/29 05:33:41;;;;;;;5.57;3.45;;;;;;;;;;5026708;28;20609;-67
2022/08/29 05:36:07;;;;;;;4.97;3.38;;;;;;;;;;5024527;28;20217;-67
2022/08/29 05:38:32;;;;;;;8.85;3.38;;;;;;;;;;5024794;28;20285;-67
2022/08/29 05:40:58;;;;;;;8.82;3.65;;;;;;;;;;5023756;28;20190;-67
2022/08/29 05:43:24;;;;;;;5.15;3.05;;;;;;;;;;5020239;28;20221;-68
2022/08/29 05:45:49;;;;;;;5.68;3.05;;;;;;;;;;5022364;28;20206;-67
2022/08/29 05:48:17;;;;;;;6.40;3.25;;;;;;;;;;5016146;28;20284;-67
2022/08/29 05:50:43;;;;;;;8.48;3.25;;;;;;;;;;5019626;28;20208;-67
2022/08/29 05:53:10;;;;;;;6.43;3.20;;;;;;;;;;5020960;28;20671;-67
2022/08/29 05:55:41;;;;;;;10.20;3.67;;;;;;;;;;5017565;28;20178;-67
2022/08/29 05:58:07;;;;;;;6.80;3.70;;;;;;;;;;5021706;28;20194;-68
2022/08/29 06:00:32;;;;;;;8.43;3.42;;;;;;;;;;5021989;28;20525;-67
2022/08/29 06:02:58;;;;;;;7.63;3.78;;;;;;;;;;5023107;28;20264;-67
2022/08/29 06:05:23;;;;;;;5.80;3.35;;;;;;;;;;5019421;28;20210;-67
2022/08/29 06:07:48;;;;;;;7.20;3.42;;;;;;;;;;5021660;28;20217;-67
2022/08/29 06:10:14;;;;;;;5.80;3.63;;;;;;;;;;5020759;28;20261;-67
2022/08/29 06:12:39;;;;;;;7.75;3.70;;;;;;;;;;5026128;28;20182;-67
2022/08/29 06:15:05;;;;;;;8.40;3.67;;;;;;;;;;5021023;28;20201;-68
2022/08/29 06:17:30;;;;;;;7.78;3.70;;;;;;;;;;4326127;28;10000847;-68
2022/08/29 06:19:56;;;;;;;7.90;4.05;;;;;;;;;;5013864;28;20189;-67
2022/08/29 06:22:21;;;;;;;7.22;3.60;;;;;;;;;;5018848;28;20277;-67
2022/08/29 06:24:47;;;;;;;13.05;4.50;;;;;;;;;;5020096;28;20221;-67
2022/08/29 06:27:13;;;;;;;12.07;4.38;;;;;;;;;;5019447;28;20198;-67
2022/08/29 06:29:38;;;;;;;13.23;4.47;;;;;;;;;;5019129;28;20201;-68
2022/08/29 06:32:04;;;;;;;13.75;4.35;;;;;;;;;;5014622;28;20738;-68
2022/08/29 06:34:29;;;;;;;10.20;4.35;;;;;;;;;;5020206;28;20604;-68
2022/08/29 06:36:55;;;;;;;10.50;4.03;;;;;;;;;;5020318;28;20216;-68
2022/08/29 06:39:20;;;;;;;10.32;4.30;;;;;;;;;;5021907;28;20276;-68
2022/08/29 06:41:46;;;;;;;14.30;5.10;;;;;;;;;;5014735;28;20645;-68
2022/08/29 06:44:11;;;;;;;7.95;3.92;;;;;;;;;;5019086;28;20277;-67
2022/08/29 06:46:39;;;;;;;12.55;4.90;;;;;;;;;;5017758;28;20221;-68
2022/08/29 06:49:07;;;;;;;9.82;4.28;;;;;;;;;;5021067;28;20202;-68
2022/08/29 06:51:35;;;;;;;15.25;5.10;;;;;;;;;;5017645;28;20205;-68
2022/08/29 06:54:04;;;;;;;10.63;4.63;;;;;;;;;;5020186;28;20200;-68
2022/08/29 06:56:29;;;;;;;10.15;4.78;;;;;;;;;;5018830;28;20178;-67
2022/08/29 06:58:55;;;;;;;15.85;5.18;;;;;;;;;;5016829;28;20198;-68
2022/08/29 07:01:22;;;;;;;11.57;5.03;;;;;;;;;;5017325;28;20190;-68
2022/08/29 07:03:47;;;;;;;10.32;5.28;;;;;;;;;;5020866;28;20198;-67
2022/08/29 07:06:13;;;;;;;11.57;4.68;;;;;;;;;;5022856;28;20535;-67
2022/08/29 07:08:39;;;;;;;13.40;4.68;;;;;;;;;;5020104;28;20197;-68
2022/08/29 07:11:05;;;;;;;11.38;4.90;;;;;;;;;;5018468;28;20262;-68
2022/08/29 07:13:31;;;;;;;10.50;5.00;;;;;;;;;;5022688;28;20189;-68
2022/08/29 07:15:56;;;;;;;8.65;5.10;;;;;;;;;;5018586;28;20178;-68
2022/08/29 07:18:22;;;;;;;9.43;4.75;;;;;;;;;;5024082;28;20182;-69
2022/08/29 07:20:48;;;;;;;11.13;4.80;;;;;;;;;;5020205;28;20186;-68
2022/08/29 07:23:13;;;;;;;10.25;5.25;;;;;;;;;;5020202;28;20190;-68
2022/08/29 07:25:38;;;;;;;12.55;5.18;;;;;;;;;;5018407;28;20234;-67
2022/08/29 07:28:05;;;;;;;14.45;5.05;;;;;;;;;;5018931;28;20265;-68
2022/08/29 07:30:31;;;;;;;10.80;5.18;;;;;;;;;;5021494;28;20182;-68
2022/08/29 07:32:56;;;;;;;9.88;4.43;;;;;;;;;;5019833;28;20334;-68
2022/08/29 07:35:23;;;;;;;9.38;4.55;;;;;;;;;;5023539;28;20259;-68
2022/08/29 07:37:49;;;;;;;11.05;5.28;;;;;;;;;;5024330;28;20665;-67
2022/08/29 07:40:16;;;;;;;11.73;4.80;;;;;;;;;;5021670;28;20183;-68
2022/08/29 07:42:42;;;;;;;11.18;5.30;;;;;;;;;;5020833;28;20182;-68
2022/08/29 07:45:10;;;;;;;9.90;5.10;;;;;;;;;;5020493;28;20202;-68
2022/08/29 07:47:35;;;;;;;10.27;4.55;;;;;;;;;;5021485;28;20722;-68
2022/08/29 07:50:02;;;;;;;9.32;4.25;;;;;;;;;;5025804;28;20222;-68
2022/08/29 07:52:28;;;;;;;11.23;5.00;;;;;;;;;;5024177;28;20186;-68
2022/08/29 07:54:54;;;;;;;15.60;4.90;;;;;;;;;;5021710;28;20190;-68
2022/08/29 07:57:19;;;;;;;13.93;4.93;;;;;;;;;;5025005;28;20182;-68
2022/08/29 07:59:45;;;;;;;10.65;4.68;;;;;;;;;;5029635;28;20228;-68
2022/08/29 08:02:10;;;;;;;9.82;4.20;;;;;;;;;;5023699;28;20190;-67
2022/08/29 08:04:35;;;;;;;13.38;4.93;;;;;;;;;;5027429;28;20189;-68
2022/08/29 08:07:02;;;;;;;10.10;4.38;;;;;;;;;;5022843;28;20236;-68
2022/08/29 08:09:27;;;;;;;11.75;4.22;;;;;;;;;;5024417;28;20272;-68
2022/08/29 08:11:52;;;;;;;12.50;3.92;;;;;;;;;;5020588;28;20174;-68
2022/08/29 08:14:18;;;;;;;10.15;3.85;;;;;;;;;;5024256;28;20595;-68
2022/08/29 08:16:44;;;;;;;5.75;3.47;;;;;;;;;;5023123;28;20299;-68
2022/08/29 08:19:09;;;;;;;10.00;4.10;;;;;;;;;;5023765;28;20190;-68
2022/08/29 08:21:34;;;;;;;9.90;3.60;;;;;;;;;;5021352;28;20634;-67
2022/08/29 08:24:00;;;;;;;7.40;4.30;;;;;;;;;;5023946;28;20566;-67
2022/08/29 08:26:27;;;;;;;16.15;4.47;;;;;;;;;;5025588;28;20226;-67
2022/08/29 08:28:52;;;;;;;9.45;3.72;;;;;;;;;;5023377;28;20194;-67
2022/08/29 08:31:19;;;;;;;12.57;4.40;;;;;;;;;;5024606;28;20202;-67
2022/08/29 08:33:45;;;;;;;13.65;4.22;;;;;;;;;;5029098;28;20523;-67
2022/08/29 08:36:18;;;;;;;8.05;4.00;;;;;;;;;;5019107;28;20308;-68
2022/08/29 08:38:44;;;;;;;8.95;4.15;;;;;;;;;;5024934;28;20182;-68
2022/08/29 08:41:21;;;;;;;6.75;3.65;;;;;;;;;;5028072;28;20174;-68
2022/08/29 08:43:52;;;;;;;8.43;3.50;;;;;;;;;;5019786;28;20268;-67
2022/08/29 08:46:26;;;;;;;14.10;4.40;;;;;;;;;;5025855;28;20285;-67
2022/08/29 08:48:54;;;;;;;14.38;4.20;;;;;;;;;;5020238;28;20185;-68
2022/08/29 08:51:26;;;;;;;6.90;3.67;;;;;;;;;;5027483;28;20261;-68
2022/08/29 08:53:55;;;;;;;6.85;3.40;;;;;;;;;;5024954;28;20178;-68
2022/08/29 08:56:34;;;;;;;11.90;4.00;;;;;;;;;;5028069;28;20193;-68
2022/08/29 08:59:12;;;;;;;8.80;3.60;;;;;;;;;;5026426;28;20277;-68
2022/08/29 09:02:25;;;;;;;11.50;3.45;;;;;;;;;;5025810;28;20185;-67
2022/08/29 09:05:48;;;;;;;10.35;4.07;;;;;;;;;;5021842;28;20210;-68
2022/08/29 09:08:13;;;;;;;11.05;4.10;;;;;;;;;;5022818;28;20539;-70
2022/08/29 09:11:00;;;;;;;8.05;4.00;;;;;;;;;;5025678;28;20194;-68
2022/08/29 09:13:45;;;;;;;11.77;3.42;;;;;;;;;;5024982;28;20277;-67
2022/08/29 09:16:26;;;;;;;10.38;4.00;;;;;;;;;;5024195;28;20198;-67
2022/08/29 09:18:51;;;;;;;8.95;3.60;;;;;;;;;;5024464;28;20821;-68
2022/08/29 09:21:19;;;;;;;15.90;3.72;;;;;;;;;;5025528;28;20272;-68
2022/08/29 09:23:53;;;;;;;9.65;3.90;;;;;;;;;;5025263;28;20182;-68
2022/08/29 09:26:21;;;;;;;12.18;3.42;;;;;;;;;;5027106;28;20234;-68
2022/08/29 09:28:47;;;;;;;9.00;3.30;;;;;;;;;;5025868;28;20178;-68
2022/08/29 09:31:34;;;;;;;12.00;3.42;;;;;;;;;;5026644;28;20668;-68
2022/08/29 09:34:07;;;;;;;10.50;3.30;;;;;;;;;;5025346;28;20273;-70
2022/08/29 09:36:48;;;;;;;5.65;2.80;;;;;;;;;;5018943;28;20261;-68
2022/08/29 09:39:22;;;;;;;10.40;2.67;;;;;;;;;;5020592;28;20182;-68
2022/08/29 09:42:12;;;;;;;6.07;2.60;;;;;;;;;;5026219;28;20199;-68
2022/08/29 09:44:39;;;;;;;10.45;2.90;;;;;;;;;;5020449;28;20201;-68
2022/08/29 09:47:30;;;;;;;5.05;2.50;;;;;;;;;;5024507;28;20198;-68
2022/08/29 09:49:59;;;;;;;11.18;2.42;;;;;;;;;;5026879;28;20192;-68
2022/08/29 09:52:25;;;;;;;6.88;2.30;;;;;;;;;;5026019;28;20300;-68
2022/08/29 09:54:50;;;;;;;7.57;2.25;;;;;;;;;;5027707;28;20264;-67
2022/08/29 09:57:15;;;;;;;9.32;2.50;;;;;;;;;;5025964;28;20264;-68
2022/08/29 09:59:43;;;;;;;8.20;2.33;;;;;;;;;;5024328;28;20181;-68
2022/08/29 10:02:23;;;;;;;5.90;1.83;;;;;;;;;;5021799;28;20272;-67
2022/08/29 10:04:55;;;;;;;9.02;2.47;;;;;;;;;;5025321;28;20540;-68
2022/08/29 10:07:30;;;;;;;6.50;2.55;;;;;;;;;;5025721;28;20274;-68
2022/08/29 10:10:03;;;;;;;7.10;2.30;;;;;;;;;;5024875;28;20365;-68
2022/08/29 10:13:08;;;;;;;7.60;2.13;;;;;;;;;;5021564;28;20533;-68
2022/08/29 10:16:05;;;;;;;10.07;2.67;;;;;;;;;;5021504;28;20267;-68
2022/08/29 10:18:42;;;;;;;5.15;2.58;;;;;;;;;;5018945;28;20201;-67
2022/08/29 10:21:24;;;;;;;6.95;2.17;;;;;;;;;;5022698;28;20182;-68
2022/08/29 10:24:03;;;;;;;8.68;2.55;;;;;;;;;;5024360;28;20197;-68
2022/08/29 10:26:51;;;;;;;7.22;2.40;;;;;;;;;;5022459;28;20233;-67
2022/08/29 10:29:41;;;;;;;6.38;2.15;;;;;;;;;;5016863;28;20264;-67
2022/08/29 10:32:31;;;;;;;6.55;2.30;;;;;;;;;;5017389;28;20237;-67
2022/08/29 10:35:34;;;;;;;5.60;2.20;;;;;;;;;;5017032;28;20174;-68
2022/08/29 10:38:12;;;;;;;8.27;2.40;;;;;;;;;;5005220;28;20219;-68
2022/08/29 10:40:50;;;;;;;6.53;2.17;;;;;;;;;;5012443;28;20264;-68
2022/08/29 10:43:27;;;;;;;5.13;2.10;;;;;;;;;;5015596;28;20558;-68
2022/08/29 10:46:26;;;;;;;4.40;2.00;;;;;;;;;;5021565;28;20208;-68
2022/08/29 10:49:03;;;;;;;9.02;2.50;;;;;;;;;;5018319;28;20201;-67
2022/08/29 10:51:50;;;;;;;6.25;2.10;;;;;;;;;;5025797;28;20181;-68
2022/08/29 10:54:44;;;;;;;3.88;2.00;;;;;;;;;;5022846;28;20235;-68
2022/08/29 10:57:16;;;;;;;8.57;2.53;;;;;;;;;;5023197;28;20178;-68
2022/08/29 11:00:03;;;;;;;9.38;2.72;;;;;;;;;;5013576;28;20175;-68
2022/08/29 11:02:37;;;;;;;5.78;2.05;;;;;;;;;;5017414;28;20182;-67
2022/08/29 11:05:12;;;;;;;7.68;2.40;;;;;;;;;;5020987;28;20659;-68
2022/08/29 11:08:03;;;;;;;4.38;1.67;;;;;;;;;;5025852;28;20181;-68
2022/08/29 11:10:38;;;;;;;5.53;2.60;;;;;;;;;;5027745;28;20186;-68
2022/08/29 11:13:37;;;;;;;5.80;2.20;;;;;;;;;;5030229;28;20626;-68
2022/08/29 11:16:14;;;;;;;5.90;2.20;;;;;;;;;;5022325;28;20198;-68
2022/08/29 11:18:50;;;;;;;4.38;2.10;;;;;;;;;;5020284;28;20189;-67
2022/08/29 11:21:39;;;;;;;6.47;2.60;;;;;;;;;;5025658;28;20182;-67
2022/08/29 11:24:05;;;;;;;6.70;2.38;;;;;;;;;;5032476;28;20197;-68
2022/08/29 11:26:43;;;;;;;7.88;2.15;;;;;;;;;;5017697;28;20194;-69
2022/08/29 11:29:17;;;;;;;4.28;2.40;;;;;;;;;;5020415;28;20588;-68
2022/08/29 11:31:55;;;;;;;4.93;2.20;;;;;;;;;;5023341;28;20205;-68
2022/08/29 11:34:38;;;;;;;7.47;2.13;;;;;;;;;;5031240;28;20192;-67
2022/08/29 11:37:36;;;;;;;7.28;2.78;;;;;;;;;;5023666;28;20190;-68
2022/08/29 11:40:28;;;;;;;5.97;2.10;;;;;;;;;;5028626;28;20671;-68
2022/08/29 11:43:01;;;;;;;7.50;3.08;;;;;;;;;;5029247;28;20240;-68
2022/08/29 11:45:31;;;;;;;4.85;2.75;;;;;;;;;;5019892;28;20233;-67
2022/08/29 11:48:08;;;;;;;5.97;2.58;;;;;;;;;;5021739;28;20186;-68
2022/08/29 11:50:36;;;;;;;6.90;2.33;;;;;;;;;;5031066;28;20201;-67
2022/08/29 11:53:11;;;;;;;5.50;2.65;;;;;;;;;;5022818;28;20182;-67
2022/08/29 11:55:42;;;;;;;6.57;2.92;;;;;;;;;;5026263;28;20185;-67
2022/08/29 11:58:13;;;;;;;4.82;2.40;;;;;;;;;;5014567;28;20179;-68
2022/08/29 12:00:39;;;;;;;10.25;2.85;;;;;;;;;;5025218;28;20567;-68
2022/08/29 12:03:33;;;;;;;5.63;2.47;;;;;;;;;;5020980;28;20182;-68
2022/08/29 12:06:36;;;;;;;5.05;2.60;;;;;;;;;;5028399;28;20284;-66
2022/08/29 12:09:11;;;;;;;5.70;2.53;;;;;;;;;;5024265;28;20281;-67
2022/08/29 12:11:57;;;;;;;8.32;2.92;;;;;;;;;;5017096;28;20185;-67
2022/08/29 12:14:44;;;;;;;8.50;2.80;;;;;;;;;;5017006;28;20182;-68
2022/08/29 12:17:15;;;;;;;5.38;2.53;;;;;;;;;;5029454;28;20185;-69
2022/08/29 12:19:50;;;;;;;7.07;2.85;;;;;;;;;;5030876;28;20180;-68
2022/08/29 12:22:54;;;;;;;3.58;2.53;;;;;;;;;;5030362;28;20304;-67
2022/08/29 12:25:26;;;;;;;6.78;2.67;;;;;;;;;;5019506;28;20736;-67
2022/08/29 12:28:16;;;;;;;6.47;2.22;;;;;;;;;;5024002;28;20588;-67
2022/08/29 12:30:48;;;;;;;7.78;2.63;;;;;;;;;;5030583;28;20178;-68
2022/08/29 12:33:42;;;;;;;4.45;2.00;;;;;;;;;;5014619;28;20304;-67
2022/08/29 12:36:10;;;;;;;5.43;2.45;;;;;;;;;;5029175;28;20678;-68
2022/08/29 12:39:13;;;;;;;5.10;2.35;;;;;;;;;;5029438;28;20487;-68
2022/08/29 12:42:16;;;;;;;3.88;2.17;;;;;;;;;;5023995;28;20190;-67
2022/08/29 12:45:17;;;;;;;5.57;2.22;;;;;;;;;;5018139;28;20182;-68
2022/08/29 12:47:47;;;;;;;6.38;2.33;;;;;;;;;;5022978;28;20208;-67
2022/08/29 12:50:18;;;;;;;4.93;2.72;;;;;;;;;;5023643;28;20183;-67
2022/08/29 12:53:01;;;;;;;7.47;2.28;;;;;;;;;;5023920;28;20209;-68
2022/08/29 12:55:35;;;;;;;7.35;2.30;;;;;;;;;;5024383;28;20190;-68
2022/08/29 12:58:00;;;;;;;4.88;2.20;;;;;;;;;;5018474;28;20214;-67
2022/08/29 13:00:29;;;;;;;3.97;2.30;;;;;;;;;;5025843;28;20600;-67
2022/08/29 13:03:08;;;;;;;9.40;2.38;;;;;;;;;;5022241;28;20265;-68
2022/08/29 13:05:36;;;;;;;8.02;2.40;;;;;;;;;;5022243;28;20214;-68
2022/08/29 13:08:06;;;;;;;7.60;2.42;;;;;;;;;;5021436;28;20666;-68
2022/08/29 13:10:34;;;;;;;3.50;2.50;;;;;;;;;;5026617;28;20178;-68
2022/08/29 13:13:11;;;;;;;6.18;2.40;;;;;;;;;;5020263;28;20190;-69
2022/08/29 13:15:37;;;;;;;6.45;2.15;;;;;;;;;;5021970;28;20196;-68
2022/08/29 13:18:04;;;;;;;6.63;2.10;;;;;;;;;;5016862;28;20191;-67
2022/08/29 13:20:41;;;;;;;6.97;2.47;;;;;;;;;;5023986;28;20178;-69
2022/08/29 13:23:27;;;;;;;5.50;2.20;;;;;;;;;;5020216;28;20764;-68
2022/08/29 13:26:00;;;;;;;8.05;2.30;;;;;;;;;;5022416;28;20229;-68
2022/08/29 13:28:52;;;;;;;6.07;2.67;;;;;;;;;;5017814;28;20334;-67
2022/08/29 13:31:19;;;;;;;5.43;2.10;;;;;;;;;;5023777;28;20711;-67
2022/08/29 13:33:45;;;;;;;4.22;2.17;;;;;;;;;;5020692;28;20178;-67
2022/08/29 13:36:25;;;;;;;6.00;2.17;;;;;;;;;;5025408;28;20186;-69
2022/08/29 13:39:25;;;;;;;7.95;2.10;;;;;;;;;;5015893;28;20186;-67
2022/08/29 13:41:59;;;;;;;4.40;2.20;;;;;;;;;;5011819;28;20198;-68
2022/08/29 13:44:47;;;;;;;6.20;2.47;;;;;;;;;;5019980;28;20235;-69
2022/08/29 13:47:37;;;;;;;7.90;2.20;;;;;;;;;;5017689;28;21511;-68
2022/08/29 13:50:08;;;;;;;4.72;2.40;;;;;;;;;;5019439;28;20213;-68
2022/08/29 13:52:34;;;;;;;4.75;1.92;;;;;;;;;;5018406;28;20209;-68
2022/08/29 13:54:59;;;;;;;3.78;2.03;;;;;;;;;;5013930;28;20206;-67
2022/08/29 13:57:28;;;;;;;3.65;1.85;;;;;;;;;;5015570;28;20182;-66
2022/08/29 13:59:53;;;;;;;4.15;1.90;;;;;;;;;;5020084;28;20545;-66
2022/08/29 14:02:19;;;;;;;3.47;1.63;;;;;;;;;;5018080;28;20185;-67
2022/08/29 14:04:47;;;;;;;2.53;1.70;;;;;;;;;;5016357;28;20244;-66
2022/08/29 14:07:32;;;;;;;3.80;1.60;;;;;;;;;;5018188;28;20328;-68
2022/08/29 14:09:58;;;;;;;4.75;2.30;;;;;;;;;;5022155;28;20521;-67
2022/08/29 14:12:24;;;;;;;4.13;1.83;;;;;;;;;;5017116;28;20174;-67
2022/08/29 14:14:49;;;;;;;5.80;2.40;;;;;;;;;;5013255;28;20185;-66
2022/08/29 14:17:17;;;;;;;3.47;2.00;;;;;;;;;;5017510;28;20178;-68
2022/08/29 14:19:42;;;;;;;6.53;2.17;;;;;;;;;;5016411;28;20187;-66
2022/08/29 14:22:08;;;;;;;4.88;2.05;;;;;;;;;;5015293;28;20190;-67
2022/08/29 14:24:33;;;;;;;4.25;2.00;;;;;;;;;;5015817;28;20283;-67
2022/08/29 14:27:01;;;;;;;5.82;2.22;;;;;;;;;;5019135;28;20666;-67
2022/08/29 14:29:26;;;;;;;5.55;2.08;;;;;;;;;;5017485;28;20728;-66
2022/08/29 14:31:53;;;;;;;5.07;2.03;;;;;;;;;;5018422;28;20206;-67
2022/08/29 14:34:18;;;;;;;5.30;2.33;;;;;;;;;;5021695;28;20186;-67
2022/08/29 14:36:44;;;;;;;7.38;2.30;;;;;;;;;;5020500;28;20182;-67
2022/08/29 14:39:09;;;;;;;5.28;2.08;;;;;;;;;;5018687;28;20186;-67
2022/08/29 14:41:34;;;;;;;4.78;2.13;;;;;;;;;;5018298;28;20182;-68
2022/08/29 14:44:00;;;;;;;4.18;2.25;;;;;;;;;;5015070;28;20217;-68
2022/08/29 14:46:25;;;;;;;4.57;2.20;;;;;;;;;;5023125;28;20318;-68
2022/08/29 14:48:51;;;;;;;7.13;2.17;;;;;;;;;;5021905;28;20685;-67
2022/08/29 14:51:19;;;;;;;5.65;2.05;;;;;;;;;;5025833;28;20186;-67
2022/08/29 14:53:44;;;;;;;7.45;2.35;;;;;;;;;;5021076;28;20280;-67
2022/08/29 14:56:11;;;;;;;4.93;1.80;;;;;;;;;;5023218;28;20724;-67
2022/08/29 14:58:37;;;;;;;3.75;1.85;;;;;;;;;;5020309;28;20185;-66
2022/08/29 15:01:03;;;;;;;4.00;1.90;;;;;;;;;;5021782;28;20174;-67
2022/08/29 15:03:29;;;;;;;4.72;2.00;;;;;;;;;;5023142;28;20209;-67